sensor_id;sensor_type;location;lat;lon;timestamp;pressure;altitude;pressure_sealevel;temperature;humidity
30730;BME280;17476;48.458;7.928;2022-07-17T00:00:56;100668.41;;;20.90;48.21
30730;BME280;17476;48.458;7.928;2022-07-17T00:03:22;100672.09;;;20.89;47.94
30730;BME280;17476;48.458;7.928;2022-07-17T00:05:48;100668.03;;;20.87;48.14
30730;BME280;17476;48.458;7.928;2022-07-17T00:08:14;100679.69;;;20.86;48.18
30730;BME280;17476;48.458;7.928;2022-07-17T00:10:42;100672.13;;;20.83;48.00
30730;BME280;17476;48.458;7.928;2022-07-17T00:13:09;100664.38;;;20.81;47.85
30730;BME280;17476;48.458;7.928;2022-07-17T00:15:35;100667.25;;;20.80;48.23
30730;BME280;17476;48.458;7.928;2022-07-17T00:18:03;100665.22;;;20.75;48.21
30730;BME280;17476;48.458;7.928;2022-07-17T00:20:30;100668.25;;;20.79;48.30
30730;BME280;17476;48.458;7.928;2022-07-17T00:22:56;100667.44;;;20.78;48.30
30730;BME280;17476;48.458;7.928;2022-07-17T00:25:22;100663.38;;;20.76;48.00
30730;BME280;17476;48.458;7.928;2022-07-17T00:27:48;100663.78;;;20.72;48.18
30730;BME280;17476;48.458;7.928;2022-07-17T00:30:14;100665.84;;;20.70;48.22
30730;BME280;17476;48.458;7.928;2022-07-17T00:32:41;100665.25;;;20.68;48.14
30730;BME280;17476;48.458;7.928;2022-07-17T00:35:08;100669.25;;;20.46;49.55
30730;BME280;17476;48.458;7.928;2022-07-17T00:37:40;100676.25;;;20.21;51.53
30730;BME280;17476;48.458;7.928;2022-07-17T00:40:09;100676.06;;;20.09;51.92
30730;BME280;17476;48.458;7.928;2022-07-17T00:42:38;100678.34;;;20.05;51.15
30730;BME280;17476;48.458;7.928;2022-07-17T00:45:04;100673.22;;;20.04;51.49
30730;BME280;17476;48.458;7.928;2022-07-17T00:47:30;100668.94;;;20.03;51.92
30730;BME280;17476;48.458;7.928;2022-07-17T00:49:57;100671.78;;;20.08;51.84
30730;BME280;17476;48.458;7.928;2022-07-17T00:52:23;100670.75;;;20.09;52.29
30730;BME280;17476;48.458;7.928;2022-07-17T00:54:50;100678.13;;;20.07;52.49
30730;BME280;17476;48.458;7.928;2022-07-17T00:57:18;100675.47;;;20.00;52.75
30730;BME280;17476;48.458;7.928;2022-07-17T00:59:44;100668.56;;;19.93;52.75
30730;BME280;17476;48.458;7.928;2022-07-17T01:02:12;100667.72;;;19.92;52.29
30730;BME280;17476;48.458;7.928;2022-07-17T01:04:40;100666.06;;;19.91;52.59
30730;BME280;17476;48.458;7.928;2022-07-17T01:07:07;100667.09;;;19.90;52.26
30730;BME280;17476;48.458;7.928;2022-07-17T01:09:34;100664.28;;;19.85;52.85
30730;BME280;17476;48.458;7.928;2022-07-17T01:12:00;100662.00;;;19.88;52.73
30730;BME280;17476;48.458;7.928;2022-07-17T01:14:27;100661.78;;;19.90;52.16
30730;BME280;17476;48.458;7.928;2022-07-17T01:16:54;100658.75;;;19.93;51.67
30730;BME280;17476;48.458;7.928;2022-07-17T01:19:21;100667.31;;;19.95;51.03
30730;BME280;17476;48.458;7.928;2022-07-17T01:21:49;100662.81;;;19.96;51.17
30730;BME280;17476;48.458;7.928;2022-07-17T01:24:16;100662.00;;;19.95;50.85
30730;BME280;17476;48.458;7.928;2022-07-17T01:26:44;100667.09;;;19.97;50.71
30730;BME280;17476;48.458;7.928;2022-07-17T01:29:12;100661.41;;;19.93;50.55
30730;BME280;17476;48.458;7.928;2022-07-17T01:31:39;100665.69;;;19.94;50.54
30730;BME280;17476;48.458;7.928;2022-07-17T01:34:08;100671.81;;;19.88;50.58
30730;BME280;17476;48.458;7.928;2022-07-17T01:36:35;100666.72;;;19.86;50.75
30730;BME280;17476;48.458;7.928;2022-07-17T01:39:03;100663.84;;;19.81;50.74
30730;BME280;17476;48.458;7.928;2022-07-17T01:41:29;100666.31;;;19.76;50.32
30730;BME280;17476;48.458;7.928;2022-07-17T01:43:55;100664.06;;;19.80;50.51
30730;BME280;17476;48.458;7.928;2022-07-17T01:46:21;100668.16;;;19.76;50.81
30730;BME280;17476;48.458;7.928;2022-07-17T01:48:47;100660.59;;;19.73;51.02
30730;BME280;17476;48.458;7.928;2022-07-17T01:51:12;100667.34;;;19.75;50.84
30730;BME280;17476;48.458;7.928;2022-07-17T01:53:38;100662.63;;;19.71;50.93
30730;BME280;17476;48.458;7.928;2022-07-17T01:56:05;100667.13;;;19.70;50.61
30730;BME280;17476;48.458;7.928;2022-07-17T01:58:30;100662.44;;;19.72;50.83
30730;BME280;17476;48.458;7.928;2022-07-17T02:00:56;100656.31;;;19.72;50.78
30730;BME280;17476;48.458;7.928;2022-07-17T02:03:22;100659.16;;;19.63;50.34
30730;BME280;17476;48.458;7.928;2022-07-17T02:05:48;100663.28;;;19.59;51.09
30730;BME280;17476;48.458;7.928;2022-07-17T02:08:14;100662.03;;;19.62;51.10
30730;BME280;17476;48.458;7.928;2022-07-17T02:10:40;100660.81;;;19.58;51.21
30730;BME280;17476;48.458;7.928;2022-07-17T02:13:06;100662.00;;;19.55;51.17
30730;BME280;17476;48.458;7.928;2022-07-17T02:15:32;100661.41;;;19.53;51.06
30730;BME280;17476;48.458;7.928;2022-07-17T02:17:58;100660.38;;;19.54;50.80
30730;BME280;17476;48.458;7.928;2022-07-17T02:20:24;100660.78;;;19.38;52.71
30730;BME280;17476;48.458;7.928;2022-07-17T02:22:50;100661.75;;;18.97;54.85
30730;BME280;17476;48.458;7.928;2022-07-17T02:25:17;100657.66;;;18.95;54.52
30730;BME280;17476;48.458;7.928;2022-07-17T02:27:43;100654.78;;;18.96;54.84
30730;BME280;17476;48.458;7.928;2022-07-17T02:30:17;100651.34;;;19.02;54.30
30730;BME280;17476;48.458;7.928;2022-07-17T02:32:44;100654.59;;;18.91;54.96
30730;BME280;17476;48.458;7.928;2022-07-17T02:35:11;100654.47;;;18.58;56.10
30730;BME280;17476;48.458;7.928;2022-07-17T02:37:38;100657.78;;;18.67;55.65
30730;BME280;17476;48.458;7.928;2022-07-17T02:40:05;100646.53;;;18.58;56.37
30730;BME280;17476;48.458;7.928;2022-07-17T02:42:31;100648.53;;;18.49;56.70
30730;BME280;17476;48.458;7.928;2022-07-17T02:44:58;100650.19;;;18.57;56.19
30730;BME280;17476;48.458;7.928;2022-07-17T02:47:31;100649.69;;;18.40;56.82
30730;BME280;17476;48.458;7.928;2022-07-17T02:49:58;100644.03;;;18.43;56.61
30730;BME280;17476;48.458;7.928;2022-07-17T02:52:27;100643.66;;;18.60;55.89
30730;BME280;17476;48.458;7.928;2022-07-17T02:54:53;100648.59;;;18.69;55.41
30730;BME280;17476;48.458;7.928;2022-07-17T02:57:19;100651.47;;;18.68;55.49
30730;BME280;17476;48.458;7.928;2022-07-17T02:59:46;100656.13;;;18.66;55.56
30730;BME280;17476;48.458;7.928;2022-07-17T03:02:13;100647.41;;;18.72;55.38
30730;BME280;17476;48.458;7.928;2022-07-17T03:04:39;100651.91;;;18.71;55.49
30730;BME280;17476;48.458;7.928;2022-07-17T03:07:05;100643.75;;;18.73;55.19
30730;BME280;17476;48.458;7.928;2022-07-17T03:09:31;100643.53;;;18.74;54.98
30730;BME280;17476;48.458;7.928;2022-07-17T03:11:57;100644.31;;;18.68;54.97
30730;BME280;17476;48.458;7.928;2022-07-17T03:14:23;100639.41;;;18.65;55.17
30730;BME280;17476;48.458;7.928;2022-07-17T03:16:49;100639.78;;;18.62;55.22
30730;BME280;17476;48.458;7.928;2022-07-17T03:19:15;100641.81;;;18.60;55.02
30730;BME280;17476;48.458;7.928;2022-07-17T03:21:40;100644.25;;;18.55;55.32
30730;BME280;17476;48.458;7.928;2022-07-17T03:24:06;100651.22;;;18.56;55.11
30730;BME280;17476;48.458;7.928;2022-07-17T03:26:33;100646.72;;;18.57;55.44
30730;BME280;17476;48.458;7.928;2022-07-17T03:28:58;100654.25;;;18.60;55.41
30730;BME280;17476;48.458;7.928;2022-07-17T03:31:24;100651.41;;;18.61;55.52
30730;BME280;17476;48.458;7.928;2022-07-17T03:33:50;100649.56;;;18.62;55.26
30730;BME280;17476;48.458;7.928;2022-07-17T03:36:16;100651.19;;;18.49;55.79
30730;BME280;17476;48.458;7.928;2022-07-17T03:38:42;100653.19;;;18.47;55.42
30730;BME280;17476;48.458;7.928;2022-07-17T03:41:08;100659.50;;;18.46;55.92
30730;BME280;17476;48.458;7.928;2022-07-17T03:43:34;100656.22;;;18.38;56.03
30730;BME280;17476;48.458;7.928;2022-07-17T03:45:59;100661.84;;;17.65;58.92
30730;BME280;17476;48.458;7.928;2022-07-17T03:48:25;100651.97;;;17.74;58.41
30730;BME280;17476;48.458;7.928;2022-07-17T03:50:51;100652.88;;;17.88;58.79
30730;BME280;17476;48.458;7.928;2022-07-17T03:53:17;100649.13;;;18.04;58.47
30730;BME280;17476;48.458;7.928;2022-07-17T03:55:43;100652.41;;;17.56;60.13
30730;BME280;17476;48.458;7.928;2022-07-17T03:58:09;100659.91;;;17.53;60.35
30730;BME280;17476;48.458;7.928;2022-07-17T04:00:35;100654.47;;;17.11;61.87
30730;BME280;17476;48.458;7.928;2022-07-17T04:03:01;100645.34;;;17.35;61.75
30730;BME280;17476;48.458;7.928;2022-07-17T04:05:26;100650.78;;;17.34;61.32
30730;BME280;17476;48.458;7.928;2022-07-17T04:07:52;100650.97;;;17.54;61.26
30730;BME280;17476;48.458;7.928;2022-07-17T04:10:18;100649.97;;;17.76;60.39
30730;BME280;17476;48.458;7.928;2022-07-17T04:12:45;100655.91;;;17.85;59.66
30730;BME280;17476;48.458;7.928;2022-07-17T04:15:11;100654.47;;;17.82;60.13
30730;BME280;17476;48.458;7.928;2022-07-17T04:17:36;100656.56;;;17.93;59.82
30730;BME280;17476;48.458;7.928;2022-07-17T04:20:03;100659.69;;;18.04;59.21
30730;BME280;17476;48.458;7.928;2022-07-17T04:22:29;100657.28;;;18.09;58.88
30730;BME280;17476;48.458;7.928;2022-07-17T04:24:55;100660.97;;;18.14;59.02
30730;BME280;17476;48.458;7.928;2022-07-17T04:27:21;100661.66;;;18.23;59.07
30730;BME280;17476;48.458;7.928;2022-07-17T04:29:47;100665.53;;;18.27;59.13
30730;BME280;17476;48.458;7.928;2022-07-17T04:32:13;100670.03;;;18.33;58.44
30730;BME280;17476;48.458;7.928;2022-07-17T04:34:38;100676.38;;;18.39;58.54
30730;BME280;17476;48.458;7.928;2022-07-17T04:37:04;100674.78;;;18.44;57.82
30730;BME280;17476;48.458;7.928;2022-07-17T04:39:31;100672.53;;;18.48;58.48
30730;BME280;17476;48.458;7.928;2022-07-17T04:41:57;100672.56;;;18.54;57.95
30730;BME280;17476;48.458;7.928;2022-07-17T04:44:23;100677.50;;;18.58;57.62
30730;BME280;17476;48.458;7.928;2022-07-17T04:46:49;100678.91;;;18.60;57.63
30730;BME280;17476;48.458;7.928;2022-07-17T04:49:15;100681.19;;;18.63;57.61
30730;BME280;17476;48.458;7.928;2022-07-17T04:51:41;100686.72;;;18.68;57.52
30730;BME280;17476;48.458;7.928;2022-07-17T04:54:07;100679.00;;;18.73;57.21
30730;BME280;17476;48.458;7.928;2022-07-17T04:56:32;100677.97;;;18.74;56.26
30730;BME280;17476;48.458;7.928;2022-07-17T04:58:58;100680.84;;;18.73;56.34
30730;BME280;17476;48.458;7.928;2022-07-17T05:01:24;100679.44;;;18.77;56.28
30730;BME280;17476;48.458;7.928;2022-07-17T05:03:50;100685.13;;;18.80;55.48
30730;BME280;17476;48.458;7.928;2022-07-17T05:06:16;100681.09;;;18.85;54.91
30730;BME280;17476;48.458;7.928;2022-07-17T05:08:42;100688.25;;;18.91;54.96
30730;BME280;17476;48.458;7.928;2022-07-17T05:11:08;100694.75;;;18.95;55.22
30730;BME280;17476;48.458;7.928;2022-07-17T05:13:34;100698.88;;;18.97;54.24
30730;BME280;17476;48.458;7.928;2022-07-17T05:16:00;100699.84;;;18.96;55.03
30730;BME280;17476;48.458;7.928;2022-07-17T05:18:26;100692.31;;;18.93;54.26
30730;BME280;17476;48.458;7.928;2022-07-17T05:20:52;100691.31;;;18.94;54.40
30730;BME280;17476;48.458;7.928;2022-07-17T05:23:17;100691.53;;;18.99;54.30
30730;BME280;17476;48.458;7.928;2022-07-17T05:25:43;100696.41;;;19.02;54.02
30730;BME280;17476;48.458;7.928;2022-07-17T05:28:09;100695.41;;;19.03;53.85
30730;BME280;17476;48.458;7.928;2022-07-17T05:30:35;100700.91;;;19.08;53.93
30730;BME280;17476;48.458;7.928;2022-07-17T05:33:01;100701.56;;;19.11;53.83
30730;BME280;17476;48.458;7.928;2022-07-17T05:35:27;100714.19;;;19.15;53.60
30730;BME280;17476;48.458;7.928;2022-07-17T05:37:53;100709.72;;;19.22;54.03
30730;BME280;17476;48.458;7.928;2022-07-17T05:40:18;100702.78;;;19.28;53.26
30730;BME280;17476;48.458;7.928;2022-07-17T05:42:44;100706.28;;;19.35;53.14
30730;BME280;17476;48.458;7.928;2022-07-17T05:45:10;100705.47;;;19.48;53.22
30730;BME280;17476;48.458;7.928;2022-07-17T05:47:36;100710.41;;;19.64;53.08
30730;BME280;17476;48.458;7.928;2022-07-17T05:50:03;100716.94;;;19.81;52.48
30730;BME280;17476;48.458;7.928;2022-07-17T05:52:29;100710.00;;;20.00;52.27
30730;BME280;17476;48.458;7.928;2022-07-17T05:54:55;100702.16;;;20.25;51.56
30730;BME280;17476;48.458;7.928;2022-07-17T05:57:21;100712.78;;;20.45;51.21
30730;BME280;17476;48.458;7.928;2022-07-17T05:59:46;100700.84;;;20.67;50.94
30730;BME280;17476;48.458;7.928;2022-07-17T06:02:13;100700.31;;;20.90;50.05
30730;BME280;17476;48.458;7.928;2022-07-17T06:04:39;100699.63;;;21.08;49.49
30730;BME280;17476;48.458;7.928;2022-07-17T06:07:05;100699.69;;;21.26;49.00
30730;BME280;17476;48.458;7.928;2022-07-17T06:09:30;100698.63;;;21.41;48.78
30730;BME280;17476;48.458;7.928;2022-07-17T06:11:57;100690.25;;;21.62;48.18
30730;BME280;17476;48.458;7.928;2022-07-17T06:14:23;100690.09;;;21.82;47.97
30730;BME280;17476;48.458;7.928;2022-07-17T06:16:50;100686.63;;;22.00;47.69
30730;BME280;17476;48.458;7.928;2022-07-17T06:19:16;100695.25;;;22.20;46.90
30730;BME280;17476;48.458;7.928;2022-07-17T06:21:42;100699.63;;;22.33;47.12
30730;BME280;17476;48.458;7.928;2022-07-17T06:24:08;100700.28;;;22.47;46.09
30730;BME280;17476;48.458;7.928;2022-07-17T06:26:34;100702.81;;;22.60;46.18
30730;BME280;17476;48.458;7.928;2022-07-17T06:29:00;100701.59;;;22.74;45.48
30730;BME280;17476;48.458;7.928;2022-07-17T06:31:26;100703.13;;;22.82;45.69
30730;BME280;17476;48.458;7.928;2022-07-17T06:33:52;100705.00;;;23.00;44.96
30730;BME280;17476;48.458;7.928;2022-07-17T06:36:18;100707.94;;;23.10;44.93
30730;BME280;17476;48.458;7.928;2022-07-17T06:38:44;100703.44;;;23.22;44.94
30730;BME280;17476;48.458;7.928;2022-07-17T06:41:09;100709.28;;;23.42;44.68
30730;BME280;17476;48.458;7.928;2022-07-17T06:43:38;100711.06;;;23.60;44.41
30730;BME280;17476;48.458;7.928;2022-07-17T06:46:04;100714.59;;;23.84;44.02
30730;BME280;17476;48.458;7.928;2022-07-17T06:48:30;100721.91;;;24.12;43.92
30730;BME280;17476;48.458;7.928;2022-07-17T06:50:56;100715.53;;;24.25;43.75
30730;BME280;17476;48.458;7.928;2022-07-17T06:53:22;100715.75;;;24.47;43.33
30730;BME280;17476;48.458;7.928;2022-07-17T06:55:48;100715.41;;;24.72;42.83
30730;BME280;17476;48.458;7.928;2022-07-17T06:58:14;100721.75;;;24.94;42.40
30730;BME280;17476;48.458;7.928;2022-07-17T07:00:40;100717.06;;;25.13;41.86
30730;BME280;17476;48.458;7.928;2022-07-17T07:03:06;100717.88;;;25.30;41.82
30730;BME280;17476;48.458;7.928;2022-07-17T07:05:33;100717.50;;;25.55;41.93
30730;BME280;17476;48.458;7.928;2022-07-17T07:07:59;100707.50;;;25.84;41.06
30730;BME280;17476;48.458;7.928;2022-07-17T07:10:24;100705.03;;;26.00;40.45
30730;BME280;17476;48.458;7.928;2022-07-17T07:12:50;100708.25;;;26.19;39.99
30730;BME280;17476;48.458;7.928;2022-07-17T07:15:16;100713.00;;;26.33;39.76
30730;BME280;17476;48.458;7.928;2022-07-17T07:17:42;100710.78;;;26.47;39.35
30730;BME280;17476;48.458;7.928;2022-07-17T07:20:09;100710.41;;;26.60;39.03
30730;BME280;17476;48.458;7.928;2022-07-17T07:22:35;100713.38;;;26.86;38.26
30730;BME280;17476;48.458;7.928;2022-07-17T07:25:03;100715.72;;;27.04;38.68
30730;BME280;17476;48.458;7.928;2022-07-17T07:27:30;100720.00;;;27.27;38.06
30730;BME280;17476;48.458;7.928;2022-07-17T07:29:56;100715.34;;;27.49;37.50
30730;BME280;17476;48.458;7.928;2022-07-17T07:32:22;100719.75;;;27.61;37.23
30730;BME280;17476;48.458;7.928;2022-07-17T07:34:48;100716.72;;;27.89;37.50
30730;BME280;17476;48.458;7.928;2022-07-17T07:37:14;100723.03;;;28.10;36.05
30730;BME280;17476;48.458;7.928;2022-07-17T07:39:39;100728.75;;;28.24;36.21
30730;BME280;17476;48.458;7.928;2022-07-17T07:42:05;100717.34;;;28.49;35.66
30730;BME280;17476;48.458;7.928;2022-07-17T07:44:33;100713.66;;;28.70;35.25
30730;BME280;17476;48.458;7.928;2022-07-17T07:46:59;100713.97;;;28.79;34.94
30730;BME280;17476;48.458;7.928;2022-07-17T07:49:25;100720.22;;;29.00;34.32
30730;BME280;17476;48.458;7.928;2022-07-17T07:51:52;100719.97;;;29.17;34.55
30730;BME280;17476;48.458;7.928;2022-07-17T07:54:18;100720.50;;;29.44;34.04
30730;BME280;17476;48.458;7.928;2022-07-17T07:56:43;100719.44;;;29.66;33.47
30730;BME280;17476;48.458;7.928;2022-07-17T07:59:09;100723.25;;;29.70;33.28
30730;BME280;17476;48.458;7.928;2022-07-17T08:01:35;100723.22;;;29.90;32.96
30730;BME280;17476;48.458;7.928;2022-07-17T08:04:01;100715.09;;;30.10;33.29
30730;BME280;17476;48.458;7.928;2022-07-17T08:06:27;100729.91;;;30.08;32.67
30730;BME280;17476;48.458;7.928;2022-07-17T08:08:53;100724.44;;;30.38;32.71
30730;BME280;17476;48.458;7.928;2022-07-17T08:11:18;100726.94;;;30.84;32.16
30730;BME280;17476;48.458;7.928;2022-07-17T08:13:44;100725.72;;;31.06;32.12
30730;BME280;17476;48.458;7.928;2022-07-17T08:16:10;100723.31;;;31.04;31.85
30730;BME280;17476;48.458;7.928;2022-07-17T08:18:36;100727.00;;;31.23;31.38
30730;BME280;17476;48.458;7.928;2022-07-17T08:21:02;100726.53;;;31.45;31.02
30730;BME280;17476;48.458;7.928;2022-07-17T08:23:28;100724.34;;;31.47;30.22
30730;BME280;17476;48.458;7.928;2022-07-17T08:25:54;100721.84;;;31.56;30.12
30730;BME280;17476;48.458;7.928;2022-07-17T08:28:19;100715.66;;;31.85;30.21
30730;BME280;17476;48.458;7.928;2022-07-17T08:30:46;100712.84;;;32.19;29.01
30730;BME280;17476;48.458;7.928;2022-07-17T08:33:12;100708.16;;;32.48;29.96
30730;BME280;17476;48.458;7.928;2022-07-17T08:35:40;100719.59;;;32.64;29.24
30730;BME280;17476;48.458;7.928;2022-07-17T08:38:06;100717.06;;;32.92;29.14
30730;BME280;17476;48.458;7.928;2022-07-17T08:40:36;100716.00;;;33.25;28.03
30730;BME280;17476;48.458;7.928;2022-07-17T08:43:05;100719.34;;;33.36;28.41
30730;BME280;17476;48.458;7.928;2022-07-17T08:45:32;100718.06;;;33.33;28.00
30730;BME280;17476;48.458;7.928;2022-07-17T08:47:58;100710.56;;;33.25;27.76
30730;BME280;17476;48.458;7.928;2022-07-17T08:50:30;100710.88;;;33.43;27.99
30730;BME280;17476;48.458;7.928;2022-07-17T08:52:57;100695.06;;;33.77;27.88
30730;BME280;17476;48.458;7.928;2022-07-17T08:55:24;100703.22;;;34.05;27.07
30730;BME280;17476;48.458;7.928;2022-07-17T08:57:50;100699.19;;;34.30;27.26
30730;BME280;17476;48.458;7.928;2022-07-17T09:00:19;100692.56;;;34.50;26.35
30730;BME280;17476;48.458;7.928;2022-07-17T09:05:34;100700.56;;;34.41;26.35
30730;BME280;17476;48.458;7.928;2022-07-17T09:08:02;100695.28;;;34.50;26.12
30730;BME280;17476;48.458;7.928;2022-07-17T09:10:44;100698.75;;;34.64;26.13
30730;BME280;17476;48.458;7.928;2022-07-17T09:13:34;100696.66;;;34.97;25.61
30730;BME280;17476;48.458;7.928;2022-07-17T09:16:10;100699.84;;;34.77;26.14
30730;BME280;17476;48.458;7.928;2022-07-17T09:21:25;100696.22;;;35.48;25.38
30730;BME280;17476;48.458;7.928;2022-07-17T09:23:59;100685.22;;;35.62;24.35
30730;BME280;17476;48.458;7.928;2022-07-17T09:26:26;100680.34;;;35.42;25.13
30730;BME280;17476;48.458;7.928;2022-07-17T09:28:52;100689.44;;;35.68;24.66
30730;BME280;17476;48.458;7.928;2022-07-17T09:31:28;100682.72;;;36.05;25.09
30730;BME280;17476;48.458;7.928;2022-07-17T09:33:55;100679.53;;;36.29;24.28
30730;BME280;17476;48.458;7.928;2022-07-17T09:36:22;100678.66;;;36.69;24.04
30730;BME280;17476;48.458;7.928;2022-07-17T09:38:52;100677.84;;;37.03;23.66
30730;BME280;17476;48.458;7.928;2022-07-17T09:41:19;100667.34;;;37.31;23.41
30730;BME280;17476;48.458;7.928;2022-07-17T09:43:51;100672.84;;;37.22;23.40
30730;BME280;17476;48.458;7.928;2022-07-17T09:48:55;100668.59;;;37.51;23.20
30730;BME280;17476;48.458;7.928;2022-07-17T09:53:54;100670.91;;;37.78;22.50
30730;BME280;17476;48.458;7.928;2022-07-17T09:56:22;100669.72;;;37.96;22.49
30730;BME280;17476;48.458;7.928;2022-07-17T09:59:03;100672.91;;;37.98;22.03
30730;BME280;17476;48.458;7.928;2022-07-17T10:01:31;100673.84;;;38.32;22.57
30730;BME280;17476;48.458;7.928;2022-07-17T10:03:58;100679.84;;;38.46;22.37
30730;BME280;17476;48.458;7.928;2022-07-17T10:06:25;100685.47;;;38.50;22.36
30730;BME280;17476;48.458;7.928;2022-07-17T10:08:53;100674.00;;;38.36;22.34
30730;BME280;17476;48.458;7.928;2022-07-17T10:11:31;100678.41;;;38.28;21.94
30730;BME280;17476;48.458;7.928;2022-07-17T10:14:09;100673.19;;;38.56;21.47
30730;BME280;17476;48.458;7.928;2022-07-17T10:16:37;100664.41;;;38.71;21.61
30730;BME280;17476;48.458;7.928;2022-07-17T10:19:17;100657.16;;;38.67;22.04
30730;BME280;17476;48.458;7.928;2022-07-17T10:22:04;100668.91;;;38.67;21.40
30730;BME280;17476;48.458;7.928;2022-07-17T10:24:31;100663.50;;;39.13;20.93
30730;BME280;17476;48.458;7.928;2022-07-17T10:26:58;100668.72;;;39.26;21.22
30730;BME280;17476;48.458;7.928;2022-07-17T10:29:37;100664.72;;;39.24;21.07
30730;BME280;17476;48.458;7.928;2022-07-17T10:32:14;100671.78;;;39.25;21.09
30730;BME280;17476;48.458;7.928;2022-07-17T10:34:58;100672.91;;;38.91;21.09
30730;BME280;17476;48.458;7.928;2022-07-17T10:40:24;100666.66;;;38.90;20.86
30730;BME280;17476;48.458;7.928;2022-07-17T10:43:07;100673.22;;;39.10;21.38
30730;BME280;17476;48.458;7.928;2022-07-17T10:45:39;100663.06;;;39.11;20.71
30730;BME280;17476;48.458;7.928;2022-07-17T10:48:14;100665.28;;;39.17;21.43
30730;BME280;17476;48.458;7.928;2022-07-17T10:50:45;100655.91;;;39.64;20.40
30730;BME280;17476;48.458;7.928;2022-07-17T10:53:24;100661.34;;;39.88;20.69
30730;BME280;17476;48.458;7.928;2022-07-17T10:58:42;100658.84;;;39.95;20.57
30730;BME280;17476;48.458;7.928;2022-07-17T11:01:19;100651.78;;;40.06;19.98
30730;BME280;17476;48.458;7.928;2022-07-17T11:03:55;100661.41;;;40.41;19.96
30730;BME280;17476;48.458;7.928;2022-07-17T11:08:56;100661.25;;;40.61;19.54
30730;BME280;17476;48.458;7.928;2022-07-17T11:11:54;100646.38;;;40.62;19.46
30730;BME280;17476;48.458;7.928;2022-07-17T11:14:25;100649.97;;;40.79;18.69
30730;BME280;17476;48.458;7.928;2022-07-17T11:16:55;100643.75;;;40.94;19.13
30730;BME280;17476;48.458;7.928;2022-07-17T11:19:32;100649.16;;;41.06;18.85
30730;BME280;17476;48.458;7.928;2022-07-17T11:22:01;100644.03;;;41.21;18.60
30730;BME280;17476;48.458;7.928;2022-07-17T11:24:45;100645.22;;;41.35;19.04
30730;BME280;17476;48.458;7.928;2022-07-17T11:29:44;100641.56;;;41.15;18.75
30730;BME280;17476;48.458;7.928;2022-07-17T11:32:10;100645.72;;;41.25;18.76
30730;BME280;17476;48.458;7.928;2022-07-17T11:34:36;100634.84;;;41.29;18.66
30730;BME280;17476;48.458;7.928;2022-07-17T11:37:06;100638.16;;;41.34;18.58
30730;BME280;17476;48.458;7.928;2022-07-17T11:39:48;100636.53;;;41.49;18.29
30730;BME280;17476;48.458;7.928;2022-07-17T11:42:21;100624.88;;;41.71;18.63
30730;BME280;17476;48.458;7.928;2022-07-17T11:44:50;100622.56;;;41.89;18.43
30730;BME280;17476;48.458;7.928;2022-07-17T11:47:27;100627.97;;;42.02;17.98
30730;BME280;17476;48.458;7.928;2022-07-17T11:52:48;100618.47;;;42.34;18.11
30730;BME280;17476;48.458;7.928;2022-07-17T11:55:17;100618.50;;;42.18;16.96
30730;BME280;17476;48.458;7.928;2022-07-17T11:57:49;100617.28;;;42.16;17.69
30730;BME280;17476;48.458;7.928;2022-07-17T12:00:19;100614.41;;;42.12;17.26
30730;BME280;17476;48.458;7.928;2022-07-17T12:02:46;100616.13;;;42.36;17.48
30730;BME280;17476;48.458;7.928;2022-07-17T12:05:12;100610.13;;;42.50;17.78
30730;BME280;17476;48.458;7.928;2022-07-17T12:07:47;100613.38;;;42.56;17.54
30730;BME280;17476;48.458;7.928;2022-07-17T12:10:22;100615.91;;;42.45;17.33
30730;BME280;17476;48.458;7.928;2022-07-17T12:13:03;100609.63;;;42.25;17.50
30730;BME280;17476;48.458;7.928;2022-07-17T12:15:47;100607.22;;;42.43;17.61
30730;BME280;17476;48.458;7.928;2022-07-17T12:18:35;100605.06;;;42.33;17.71
30730;BME280;17476;48.458;7.928;2022-07-17T12:21:11;100607.03;;;41.97;17.59
30730;BME280;17476;48.458;7.928;2022-07-17T12:23:40;100610.06;;;41.92;17.63
30730;BME280;17476;48.458;7.928;2022-07-17T12:26:08;100618.31;;;41.92;18.11
30730;BME280;17476;48.458;7.928;2022-07-17T12:28:35;100622.16;;;41.87;18.07
30730;BME280;17476;48.458;7.928;2022-07-17T12:31:01;100618.63;;;42.06;16.93
30730;BME280;17476;48.458;7.928;2022-07-17T12:33:27;100619.81;;;42.44;17.69
30730;BME280;17476;48.458;7.928;2022-07-17T12:35:53;100610.53;;;42.52;17.40
30730;BME280;17476;48.458;7.928;2022-07-17T12:38:19;100611.88;;;42.58;17.13
30730;BME280;17476;48.458;7.928;2022-07-17T12:40:46;100610.44;;;42.87;17.05
30730;BME280;17476;48.458;7.928;2022-07-17T12:43:12;100600.66;;;42.90;16.68
30730;BME280;17476;48.458;7.928;2022-07-17T12:45:39;100608.44;;;42.84;17.49
30730;BME280;17476;48.458;7.928;2022-07-17T12:48:05;100606.56;;;42.49;17.03
30730;BME280;17476;48.458;7.928;2022-07-17T12:50:30;100596.41;;;42.53;17.61
30730;BME280;17476;48.458;7.928;2022-07-17T12:52:57;100611.19;;;42.45;17.63
30730;BME280;17476;48.458;7.928;2022-07-17T12:55:23;100607.78;;;42.52;16.97
30730;BME280;17476;48.458;7.928;2022-07-17T12:57:48;100589.69;;;42.51;17.54
30730;BME280;17476;48.458;7.928;2022-07-17T13:00:15;100601.75;;;42.62;17.45
30730;BME280;17476;48.458;7.928;2022-07-17T13:02:41;100593.44;;;42.82;16.77
30730;BME280;17476;48.458;7.928;2022-07-17T13:05:07;100594.19;;;43.01;16.56
30730;BME280;17476;48.458;7.928;2022-07-17T13:07:34;100600.28;;;42.68;17.29
30730;BME280;17476;48.458;7.928;2022-07-17T13:10:00;100588.13;;;42.69;16.96
30730;BME280;17476;48.458;7.928;2022-07-17T13:12:25;100592.88;;;42.72;16.68
30730;BME280;17476;48.458;7.928;2022-07-17T13:14:51;100593.88;;;42.84;16.84
30730;BME280;17476;48.458;7.928;2022-07-17T13:17:17;100592.50;;;42.74;16.82